sensor_id;sensor_type;location;lat;lon;timestamp;P1;durP1;ratioP1;P2;durP2;ratioP2
48181;SDS011;33976;47.436;18.876;2022-08-16T00:01:21;8.10;;;3.87;;
48181;SDS011;33976;47.436;18.876;2022-08-16T00:03:53;6.45;;;4.03;;
48181;SDS011;33976;47.436;18.876;2022-08-16T00:06:21;6.37;;;3.50;;
48181;SDS011;33976;47.436;18.876;2022-08-16T00:08:49;7.03;;;4.05;;
48181;SDS011;33976;47.436;18.876;2022-08-16T00:11:19;6.30;;;3.70;;
48181;SDS011;33976;47.436;18.876;2022-08-16T00:13:48;6.30;;;3.50;;
48181;SDS011;33976;47.436;18.876;2022-08-16T00:16:22;6.28;;;3.53;;
48181;SDS011;33976;47.436;18.876;2022-08-16T00:19:12;7.62;;;3.10;;
48181;SDS011;33976;47.436;18.876;2022-08-16T00:21:42;9.95;;;4.15;;
48181;SDS011;33976;47.436;18.876;2022-08-16T00:24:11;6.03;;;3.50;;
48181;SDS011;33976;47.436;18.876;2022-08-16T00:26:57;5.57;;;3.17;;
48181;SDS011;33976;47.436;18.876;2022-08-16T00:29:27;6.10;;;4.05;;
48181;SDS011;33976;47.436;18.876;2022-08-16T00:31:56;6.95;;;4.20;;
48181;SDS011;33976;47.436;18.876;2022-08-16T00:34:33;7.25;;;4.10;;
48181;SDS011;33976;47.436;18.876;2022-08-16T00:37:20;10.55;;;4.90;;
48181;SDS011;33976;47.436;18.876;2022-08-16T00:39:52;7.70;;;4.37;;
48181;SDS011;33976;47.436;18.876;2022-08-16T00:42:25;7.35;;;4.03;;
48181;SDS011;33976;47.436;18.876;2022-08-16T00:45:00;10.75;;;4.53;;
48181;SDS011;33976;47.436;18.876;2022-08-16T00:47:36;6.75;;;4.20;;
48181;SDS011;33976;47.436;18.876;2022-08-16T00:50:09;12.20;;;4.45;;
48181;SDS011;33976;47.436;18.876;2022-08-16T00:52:39;7.97;;;4.05;;
48181;SDS011;33976;47.436;18.876;2022-08-16T00:55:21;6.90;;;4.00;;
48181;SDS011;33976;47.436;18.876;2022-08-16T00:58:04;6.87;;;4.22;;
48181;SDS011;33976;47.436;18.876;2022-08-16T01:00:40;7.55;;;3.83;;
48181;SDS011;33976;47.436;18.876;2022-08-16T01:03:09;6.78;;;3.95;;
48181;SDS011;33976;47.436;18.876;2022-08-16T01:05:40;6.22;;;3.92;;
48181;SDS011;33976;47.436;18.876;2022-08-16T01:08:09;7.43;;;4.47;;
48181;SDS011;33976;47.436;18.876;2022-08-16T01:10:58;7.50;;;4.22;;
48181;SDS011;33976;47.436;18.876;2022-08-16T01:13:29;7.75;;;3.97;;
48181;SDS011;33976;47.436;18.876;2022-08-16T01:16:00;6.28;;;3.80;;
48181;SDS011;33976;47.436;18.876;2022-08-16T01:18:38;6.90;;;4.60;;
48181;SDS011;33976;47.436;18.876;2022-08-16T01:24:24;6.85;;;4.07;;
48181;SDS011;33976;47.436;18.876;2022-08-16T01:27:24;6.70;;;3.80;;
48181;SDS011;33976;47.436;18.876;2022-08-16T01:29:56;8.32;;;4.20;;
48181;SDS011;33976;47.436;18.876;2022-08-16T01:32:30;7.45;;;4.20;;
48181;SDS011;33976;47.436;18.876;2022-08-16T01:35:02;6.93;;;4.10;;
48181;SDS011;33976;47.436;18.876;2022-08-16T01:37:37;6.97;;;4.05;;
48181;SDS011;33976;47.436;18.876;2022-08-16T01:40:09;7.25;;;3.85;;
48181;SDS011;33976;47.436;18.876;2022-08-16T01:42:39;8.68;;;4.45;;
48181;SDS011;33976;47.436;18.876;2022-08-16T01:45:08;9.27;;;4.28;;
48181;SDS011;33976;47.436;18.876;2022-08-16T01:47:37;5.45;;;4.05;;
48181;SDS011;33976;47.436;18.876;2022-08-16T01:50:18;8.77;;;4.18;;
48181;SDS011;33976;47.436;18.876;2022-08-16T01:53:08;8.57;;;5.15;;
48181;SDS011;33976;47.436;18.876;2022-08-16T01:55:38;6.82;;;4.30;;
48181;SDS011;33976;47.436;18.876;2022-08-16T01:58:08;7.20;;;4.72;;
48181;SDS011;33976;47.436;18.876;2022-08-16T02:00:39;7.68;;;4.45;;
48181;SDS011;33976;47.436;18.876;2022-08-16T02:03:09;8.25;;;4.40;;
48181;SDS011;33976;47.436;18.876;2022-08-16T02:05:39;9.45;;;4.68;;
48181;SDS011;33976;47.436;18.876;2022-08-16T02:08:13;5.75;;;3.78;;
48181;SDS011;33976;47.436;18.876;2022-08-16T02:11:02;9.13;;;4.62;;
48181;SDS011;33976;47.436;18.876;2022-08-16T02:13:31;9.68;;;3.90;;
48181;SDS011;33976;47.436;18.876;2022-08-16T02:15:59;7.68;;;4.30;;
48181;SDS011;33976;47.436;18.876;2022-08-16T02:18:28;7.03;;;4.40;;
48181;SDS011;33976;47.436;18.876;2022-08-16T02:20:58;7.22;;;4.05;;
48181;SDS011;33976;47.436;18.876;2022-08-16T02:23:26;7.03;;;4.43;;
48181;SDS011;33976;47.436;18.876;2022-08-16T02:25:56;6.75;;;4.15;;
48181;SDS011;33976;47.436;18.876;2022-08-16T02:28:26;8.43;;;4.60;;
48181;SDS011;33976;47.436;18.876;2022-08-16T02:30:57;8.75;;;4.18;;
48181;SDS011;33976;47.436;18.876;2022-08-16T02:33:26;7.45;;;4.93;;
48181;SDS011;33976;47.436;18.876;2022-08-16T02:36:11;7.40;;;4.60;;
48181;SDS011;33976;47.436;18.876;2022-08-16T02:39:01;8.38;;;4.62;;
48181;SDS011;33976;47.436;18.876;2022-08-16T02:41:30;11.30;;;4.28;;
48181;SDS011;33976;47.436;18.876;2022-08-16T02:44:06;8.73;;;5.20;;
48181;SDS011;33976;47.436;18.876;2022-08-16T02:46:41;7.70;;;4.70;;
48181;SDS011;33976;47.436;18.876;2022-08-16T02:49:20;9.68;;;4.72;;
48181;SDS011;33976;47.436;18.876;2022-08-16T02:51:58;8.45;;;3.95;;
48181;SDS011;33976;47.436;18.876;2022-08-16T02:54:27;7.32;;;4.40;;
48181;SDS011;33976;47.436;18.876;2022-08-16T02:56:55;7.53;;;4.35;;
48181;SDS011;33976;47.436;18.876;2022-08-16T02:59:23;7.90;;;4.80;;
48181;SDS011;33976;47.436;18.876;2022-08-16T03:02:06;11.50;;;4.65;;
48181;SDS011;33976;47.436;18.876;2022-08-16T03:04:36;7.55;;;4.30;;
48181;SDS011;33976;47.436;18.876;2022-08-16T03:07:20;10.13;;;4.87;;
48181;SDS011;33976;47.436;18.876;2022-08-16T03:09:54;9.05;;;3.97;;
48181;SDS011;33976;47.436;18.876;2022-08-16T03:12:27;6.43;;;4.00;;
48181;SDS011;33976;47.436;18.876;2022-08-16T03:15:04;6.68;;;4.50;;
48181;SDS011;33976;47.436;18.876;2022-08-16T03:17:34;6.97;;;4.18;;
48181;SDS011;33976;47.436;18.876;2022-08-16T03:20:20;7.53;;;4.72;;
48181;SDS011;33976;47.436;18.876;2022-08-16T03:22:59;8.18;;;4.72;;
48181;SDS011;33976;47.436;18.876;2022-08-16T03:25:28;8.65;;;4.00;;
48181;SDS011;33976;47.436;18.876;2022-08-16T03:28:11;8.48;;;4.45;;
48181;SDS011;33976;47.436;18.876;2022-08-16T03:30:39;7.53;;;4.22;;
48181;SDS011;33976;47.436;18.876;2022-08-16T03:33:08;8.90;;;5.22;;
48181;SDS011;33976;47.436;18.876;2022-08-16T03:35:37;8.02;;;4.55;;
48181;SDS011;33976;47.436;18.876;2022-08-16T03:38:08;11.25;;;5.00;;
48181;SDS011;33976;47.436;18.876;2022-08-16T03:40:58;7.85;;;4.50;;
48181;SDS011;33976;47.436;18.876;2022-08-16T03:43:30;8.48;;;4.40;;
48181;SDS011;33976;47.436;18.876;2022-08-16T03:46:18;6.87;;;4.10;;
48181;SDS011;33976;47.436;18.876;2022-08-16T03:49:10;8.13;;;4.62;;
48181;SDS011;33976;47.436;18.876;2022-08-16T03:51:40;10.23;;;4.43;;
48181;SDS011;33976;47.436;18.876;2022-08-16T03:54:10;6.68;;;4.47;;
48181;SDS011;33976;47.436;18.876;2022-08-16T03:56:39;6.93;;;4.50;;
48181;SDS011;33976;47.436;18.876;2022-08-16T03:59:25;9.73;;;4.43;;
48181;SDS011;33976;47.436;18.876;2022-08-16T04:01:57;8.52;;;4.30;;
48181;SDS011;33976;47.436;18.876;2022-08-16T04:04:28;6.65;;;4.43;;
48181;SDS011;33976;47.436;18.876;2022-08-16T04:07:01;7.90;;;4.78;;
48181;SDS011;33976;47.436;18.876;2022-08-16T04:09:34;8.07;;;4.93;;
48181;SDS011;33976;47.436;18.876;2022-08-16T04:12:05;9.15;;;4.60;;
48181;SDS011;33976;47.436;18.876;2022-08-16T04:14:54;7.95;;;4.80;;
48181;SDS011;33976;47.436;18.876;2022-08-16T04:17:22;9.43;;;5.05;;
48181;SDS011;33976;47.436;18.876;2022-08-16T04:19:53;6.50;;;4.30;;
48181;SDS011;33976;47.436;18.876;2022-08-16T04:22:26;20.60;;;5.87;;
48181;SDS011;33976;47.436;18.876;2022-08-16T04:24:55;17.75;;;5.55;;
48181;SDS011;33976;47.436;18.876;2022-08-16T04:27:26;7.32;;;4.32;;
48181;SDS011;33976;47.436;18.876;2022-08-16T04:29:59;13.48;;;5.03;;
48181;SDS011;33976;47.436;18.876;2022-08-16T04:32:30;9.27;;;4.55;;
48181;SDS011;33976;47.436;18.876;2022-08-16T04:34:59;8.20;;;4.60;;
48181;SDS011;33976;47.436;18.876;2022-08-16T04:37:35;9.88;;;4.40;;
48181;SDS011;33976;47.436;18.876;2022-08-16T04:40:10;7.45;;;4.00;;
48181;SDS011;33976;47.436;18.876;2022-08-16T04:42:48;6.50;;;3.95;;
48181;SDS011;33976;47.436;18.876;2022-08-16T04:45:18;6.55;;;4.07;;
48181;SDS011;33976;47.436;18.876;2022-08-16T04:48:03;12.98;;;4.20;;
48181;SDS011;33976;47.436;18.876;2022-08-16T04:50:32;9.13;;;4.40;;
48181;SDS011;33976;47.436;18.876;2022-08-16T04:53:01;9.75;;;4.05;;
48181;SDS011;33976;47.436;18.876;2022-08-16T04:55:30;9.55;;;4.43;;
48181;SDS011;33976;47.436;18.876;2022-08-16T04:58:05;9.90;;;4.90;;
48181;SDS011;33976;47.436;18.876;2022-08-16T05:00:55;12.52;;;4.45;;
48181;SDS011;33976;47.436;18.876;2022-08-16T05:03:23;8.52;;;4.05;;
48181;SDS011;33976;47.436;18.876;2022-08-16T05:05:52;10.10;;;4.07;;
48181;SDS011;33976;47.436;18.876;2022-08-16T05:08:33;8.70;;;4.50;;
48181;SDS011;33976;47.436;18.876;2022-08-16T05:11:03;9.25;;;4.75;;
48181;SDS011;33976;47.436;18.876;2022-08-16T05:13:36;10.50;;;4.25;;
48181;SDS011;33976;47.436;18.876;2022-08-16T05:16:14;9.85;;;4.60;;
48181;SDS011;33976;47.436;18.876;2022-08-16T05:18:50;8.77;;;4.40;;
48181;SDS011;33976;47.436;18.876;2022-08-16T05:21:23;17.65;;;5.47;;
48181;SDS011;33976;47.436;18.876;2022-08-16T05:24:02;11.85;;;4.70;;
48181;SDS011;33976;47.436;18.876;2022-08-16T05:26:34;9.57;;;3.90;;
48181;SDS011;33976;47.436;18.876;2022-08-16T05:29:10;7.75;;;4.72;;
48181;SDS011;33976;47.436;18.876;2022-08-16T05:31:46;8.57;;;4.55;;
48181;SDS011;33976;47.436;18.876;2022-08-16T05:34:20;8.77;;;4.28;;
48181;SDS011;33976;47.436;18.876;2022-08-16T05:36:49;9.57;;;4.35;;
48181;SDS011;33976;47.436;18.876;2022-08-16T05:39:20;7.78;;;3.97;;
48181;SDS011;33976;47.436;18.876;2022-08-16T05:41:52;7.57;;;4.45;;
48181;SDS011;33976;47.436;18.876;2022-08-16T05:44:22;8.45;;;4.43;;
48181;SDS011;33976;47.436;18.876;2022-08-16T05:46:52;7.43;;;4.78;;
48181;SDS011;33976;47.436;18.876;2022-08-16T05:49:23;10.75;;;4.43;;
48181;SDS011;33976;47.436;18.876;2022-08-16T05:52:07;10.45;;;3.92;;
48181;SDS011;33976;47.436;18.876;2022-08-16T05:54:40;5.90;;;3.92;;
48181;SDS011;33976;47.436;18.876;2022-08-16T05:57:16;11.48;;;4.97;;
48181;SDS011;33976;47.436;18.876;2022-08-16T05:59:45;9.43;;;5.57;;
48181;SDS011;33976;47.436;18.876;2022-08-16T06:02:26;7.60;;;4.87;;
48181;SDS011;33976;47.436;18.876;2022-08-16T06:05:00;7.68;;;4.82;;
48181;SDS011;33976;47.436;18.876;2022-08-16T06:07:30;7.90;;;4.40;;
48181;SDS011;33976;47.436;18.876;2022-08-16T06:10:00;7.68;;;4.30;;
48181;SDS011;33976;47.436;18.876;2022-08-16T06:12:29;10.55;;;4.90;;
48181;SDS011;33976;47.436;18.876;2022-08-16T06:14:59;9.00;;;5.53;;
48181;SDS011;33976;47.436;18.876;2022-08-16T06:17:36;7.87;;;4.60;;
48181;SDS011;33976;47.436;18.876;2022-08-16T06:20:17;11.63;;;5.20;;
48181;SDS011;33976;47.436;18.876;2022-08-16T06:22:53;8.50;;;4.78;;
48181;SDS011;33976;47.436;18.876;2022-08-16T06:25:40;7.87;;;4.57;;
48181;SDS011;33976;47.436;18.876;2022-08-16T06:28:09;8.75;;;4.00;;
48181;SDS011;33976;47.436;18.876;2022-08-16T06:30:58;8.05;;;4.80;;
48181;SDS011;33976;47.436;18.876;2022-08-16T06:33:29;6.22;;;3.30;;
48181;SDS011;33976;47.436;18.876;2022-08-16T06:36:09;6.57;;;3.55;;
48181;SDS011;33976;47.436;18.876;2022-08-16T06:38:41;5.80;;;3.00;;
48181;SDS011;33976;47.436;18.876;2022-08-16T06:41:23;4.90;;;3.05;;
48181;SDS011;33976;47.436;18.876;2022-08-16T06:43:54;7.35;;;3.22;;
48181;SDS011;33976;47.436;18.876;2022-08-16T06:46:27;6.70;;;3.05;;
48181;SDS011;33976;47.436;18.876;2022-08-16T06:49:02;4.62;;;2.37;;
48181;SDS011;33976;47.436;18.876;2022-08-16T06:51:33;6.30;;;2.67;;
48181;SDS011;33976;47.436;18.876;2022-08-16T06:54:16;3.67;;;2.40;;
48181;SDS011;33976;47.436;18.876;2022-08-16T06:56:44;4.20;;;2.50;;
48181;SDS011;33976;47.436;18.876;2022-08-16T06:59:12;5.70;;;2.50;;
48181;SDS011;33976;47.436;18.876;2022-08-16T07:01:42;3.53;;;2.30;;
48181;SDS011;33976;47.436;18.876;2022-08-16T07:04:21;3.35;;;2.25;;
48181;SDS011;33976;47.436;18.876;2022-08-16T07:07:00;4.87;;;2.37;;
48181;SDS011;33976;47.436;18.876;2022-08-16T07:09:29;4.45;;;2.10;;
48181;SDS011;33976;47.436;18.876;2022-08-16T07:11:58;3.97;;;2.50;;
48181;SDS011;33976;47.436;18.876;2022-08-16T07:14:32;3.65;;;2.25;;
48181;SDS011;33976;47.436;18.876;2022-08-16T07:17:03;3.42;;;2.20;;
48181;SDS011;33976;47.436;18.876;2022-08-16T07:19:46;5.32;;;2.78;;
48181;SDS011;33976;47.436;18.876;2022-08-16T07:22:35;5.00;;;3.10;;
48181;SDS011;33976;47.436;18.876;2022-08-16T07:25:24;6.00;;;3.70;;
48181;SDS011;33976;47.436;18.876;2022-08-16T07:27:55;6.90;;;4.32;;
48181;SDS011;33976;47.436;18.876;2022-08-16T07:30:28;10.07;;;5.32;;
48181;SDS011;33976;47.436;18.876;2022-08-16T07:33:13;10.93;;;5.45;;
48181;SDS011;33976;47.436;18.876;2022-08-16T07:36:03;7.70;;;5.07;;
48181;SDS011;33976;47.436;18.876;2022-08-16T07:38:34;8.80;;;5.00;;
48181;SDS011;33976;47.436;18.876;2022-08-16T07:41:03;9.93;;;5.28;;
48181;SDS011;33976;47.436;18.876;2022-08-16T07:43:37;11.25;;;5.72;;
48181;SDS011;33976;47.436;18.876;2022-08-16T07:46:08;10.70;;;5.20;;
48181;SDS011;33976;47.436;18.876;2022-08-16T07:48:56;10.80;;;5.95;;
48181;SDS011;33976;47.436;18.876;2022-08-16T07:51:30;8.23;;;5.50;;
48181;SDS011;33976;47.436;18.876;2022-08-16T07:54:04;8.95;;;5.55;;
48181;SDS011;33976;47.436;18.876;2022-08-16T07:56:39;9.65;;;4.78;;
48181;SDS011;33976;47.436;18.876;2022-08-16T07:59:06;9.10;;;4.68;;
48181;SDS011;33976;47.436;18.876;2022-08-16T08:01:35;7.55;;;4.95;;
48181;SDS011;33976;47.436;18.876;2022-08-16T08:04:05;8.98;;;4.80;;
48181;SDS011;33976;47.436;18.876;2022-08-16T08:09:09;6.45;;;4.22;;
48181;SDS011;33976;47.436;18.876;2022-08-16T08:11:37;5.05;;;3.35;;
48181;SDS011;33976;47.436;18.876;2022-08-16T08:14:07;6.25;;;4.20;;
48181;SDS011;33976;47.436;18.876;2022-08-16T08:16:55;6.35;;;3.83;;
48181;SDS011;33976;47.436;18.876;2022-08-16T08:19:27;6.28;;;3.70;;
48181;SDS011;33976;47.436;18.876;2022-08-16T08:21:56;9.88;;;4.15;;
48181;SDS011;33976;47.436;18.876;2022-08-16T08:24:29;7.30;;;3.70;;
48181;SDS011;33976;47.436;18.876;2022-08-16T08:27:00;5.60;;;3.83;;
48181;SDS011;33976;47.436;18.876;2022-08-16T08:29:31;6.57;;;3.72;;
48181;SDS011;33976;47.436;18.876;2022-08-16T08:32:07;5.05;;;3.30;;
48181;SDS011;33976;47.436;18.876;2022-08-16T08:34:57;8.40;;;3.40;;
48181;SDS011;33976;47.436;18.876;2022-08-16T08:37:35;5.43;;;3.70;;
48181;SDS011;33976;47.436;18.876;2022-08-16T08:40:21;5.07;;;3.28;;
48181;SDS011;33976;47.436;18.876;2022-08-16T08:42:54;8.65;;;3.28;;
48181;SDS011;33976;47.436;18.876;2022-08-16T08:45:29;6.35;;;3.60;;
48181;SDS011;33976;47.436;18.876;2022-08-16T08:48:18;6.62;;;3.33;;
48181;SDS011;33976;47.436;18.876;2022-08-16T08:51:03;6.32;;;3.37;;
48181;SDS011;33976;47.436;18.876;2022-08-16T08:53:38;5.95;;;4.00;;
48181;SDS011;33976;47.436;18.876;2022-08-16T08:56:06;7.18;;;3.70;;
48181;SDS011;33976;47.436;18.876;2022-08-16T08:58:52;5.43;;;3.20;;
48181;SDS011;33976;47.436;18.876;2022-08-16T09:01:29;10.85;;;4.30;;
48181;SDS011;33976;47.436;18.876;2022-08-16T09:04:11;5.65;;;3.33;;
48181;SDS011;33976;47.436;18.876;2022-08-16T09:06:46;4.10;;;2.83;;
48181;SDS011;33976;47.436;18.876;2022-08-16T09:09:22;5.95;;;3.40;;
48181;SDS011;33976;47.436;18.876;2022-08-16T09:11:54;6.60;;;3.37;;
48181;SDS011;33976;47.436;18.876;2022-08-16T09:14:38;5.28;;;2.78;;
48181;SDS011;33976;47.436;18.876;2022-08-16T09:17:18;4.72;;;3.50;;
48181;SDS011;33976;47.436;18.876;2022-08-16T09:20:09;5.60;;;2.83;;
48181;SDS011;33976;47.436;18.876;2022-08-16T09:22:43;4.95;;;3.20;;
48181;SDS011;33976;47.436;18.876;2022-08-16T09:25:22;5.53;;;2.78;;
48181;SDS011;33976;47.436;18.876;2022-08-16T09:27:53;4.22;;;2.80;;
48181;SDS011;33976;47.436;18.876;2022-08-16T09:30:25;4.55;;;2.97;;
48181;SDS011;33976;47.436;18.876;2022-08-16T09:33:03;6.28;;;3.05;;
48181;SDS011;33976;47.436;18.876;2022-08-16T09:35:34;3.67;;;2.78;;
48181;SDS011;33976;47.436;18.876;2022-08-16T09:38:07;5.57;;;2.97;;
48181;SDS011;33976;47.436;18.876;2022-08-16T09:40:59;4.90;;;2.70;;
48181;SDS011;33976;47.436;18.876;2022-08-16T09:43:33;3.85;;;2.90;;
48181;SDS011;33976;47.436;18.876;2022-08-16T09:46:24;4.15;;;2.65;;
48181;SDS011;33976;47.436;18.876;2022-08-16T09:49:14;5.25;;;2.62;;
48181;SDS011;33976;47.436;18.876;2022-08-16T09:51:47;6.10;;;3.30;;
48181;SDS011;33976;47.436;18.876;2022-08-16T09:54:25;3.70;;;2.70;;
48181;SDS011;33976;47.436;18.876;2022-08-16T09:57:03;4.53;;;2.72;;
48181;SDS011;33976;47.436;18.876;2022-08-16T09:59:39;4.97;;;2.75;;
48181;SDS011;33976;47.436;18.876;2022-08-16T10:02:17;7.43;;;3.20;;
48181;SDS011;33976;47.436;18.876;2022-08-16T10:04:55;4.62;;;3.10;;
48181;SDS011;33976;47.436;18.876;2022-08-16T10:07:27;3.97;;;2.80;;
48181;SDS011;33976;47.436;18.876;2022-08-16T10:10:14;5.70;;;3.50;;
48181;SDS011;33976;47.436;18.876;2022-08-16T10:13:36;6.03;;;2.97;;
48181;SDS011;33976;47.436;18.876;2022-08-16T10:18:50;4.53;;;2.87;;
48181;SDS011;33976;47.436;18.876;2022-08-16T10:21:41;4.93;;;2.80;;
48181;SDS011;33976;47.436;18.876;2022-08-16T10:24:37;4.12;;;2.80;;
48181;SDS011;33976;47.436;18.876;2022-08-16T10:27:35;5.80;;;2.90;;
48181;SDS011;33976;47.436;18.876;2022-08-16T10:33:51;5.85;;;3.10;;
48181;SDS011;33976;47.436;18.876;2022-08-16T10:36:29;3.45;;;2.53;;
48181;SDS011;33976;47.436;18.876;2022-08-16T10:39:49;3.90;;;2.40;;
48181;SDS011;33976;47.436;18.876;2022-08-16T10:42:25;3.42;;;2.40;;
48181;SDS011;33976;47.436;18.876;2022-08-16T10:46:05;4.28;;;2.70;;
48181;SDS011;33976;47.436;18.876;2022-08-16T10:49:29;5.57;;;3.35;;
48181;SDS011;33976;47.436;18.876;2022-08-16T10:52:18;4.00;;;2.80;;
48181;SDS011;33976;47.436;18.876;2022-08-16T10:55:08;5.20;;;2.92;;
48181;SDS011;33976;47.436;18.876;2022-08-16T10:58:13;4.03;;;2.75;;
48181;SDS011;33976;47.436;18.876;2022-08-16T11:00:44;6.87;;;3.12;;
48181;SDS011;33976;47.436;18.876;2022-08-16T11:03:13;3.78;;;2.70;;
48181;SDS011;33976;47.436;18.876;2022-08-16T11:06:30;5.28;;;3.15;;
48181;SDS011;33976;47.436;18.876;2022-08-16T11:09:00;5.45;;;3.05;;
48181;SDS011;33976;47.436;18.876;2022-08-16T11:11:49;4.60;;;3.00;;
48181;SDS011;33976;47.436;18.876;2022-08-16T11:17:32;4.22;;;2.65;;
48181;SDS011;33976;47.436;18.876;2022-08-16T11:20:00;4.28;;;2.70;;
48181;SDS011;33976;47.436;18.876;2022-08-16T11:22:50;8.13;;;3.28;;
48181;SDS011;33976;47.436;18.876;2022-08-16T11:25:21;4.40;;;2.72;;
48181;SDS011;33976;47.436;18.876;2022-08-16T11:28:12;4.25;;;2.80;;
48181;SDS011;33976;47.436;18.876;2022-08-16T11:31:04;4.53;;;2.83;;
48181;SDS011;33976;47.436;18.876;2022-08-16T11:33:35;4.15;;;2.85;;
48181;SDS011;33976;47.436;18.876;2022-08-16T11:36:20;6.50;;;3.20;;
48181;SDS011;33976;47.436;18.876;2022-08-16T11:38:56;6.43;;;2.80;;
48181;SDS011;33976;47.436;18.876;2022-08-16T11:41:30;4.20;;;2.78;;
48181;SDS011;33976;47.436;18.876;2022-08-16T11:44:19;3.45;;;2.60;;
48181;SDS011;33976;47.436;18.876;2022-08-16T11:47:08;3.80;;;2.60;;
48181;SDS011;33976;47.436;18.876;2022-08-16T11:49:41;4.20;;;2.60;;
48181;SDS011;33976;47.436;18.876;2022-08-16T11:52:16;5.30;;;2.45;;
48181;SDS011;33976;47.436;18.876;2022-08-16T11:54:55;7.40;;;2.53;;
48181;SDS011;33976;47.436;18.876;2022-08-16T11:57:27;3.50;;;2.40;;
48181;SDS011;33976;47.436;18.876;2022-08-16T12:00:17;3.60;;;2.58;;
48181;SDS011;33976;47.436;18.876;2022-08-16T12:03:09;3.90;;;2.65;;
48181;SDS011;33976;47.436;18.876;2022-08-16T12:05:40;4.28;;;2.62;;
48181;SDS011;33976;47.436;18.876;2022-08-16T12:08:33;3.97;;;2.65;;
48181;SDS011;33976;47.436;18.876;2022-08-16T12:11:17;4.25;;;2.72;;
48181;SDS011;33976;47.436;18.876;2022-08-16T12:13:54;5.43;;;2.65;;
48181;SDS011;33976;47.436;18.876;2022-08-16T12:16:22;4.53;;;2.37;;
48181;SDS011;33976;47.436;18.876;2022-08-16T12:18:58;5.03;;;2.50;;
48181;SDS011;33976;47.436;18.876;2022-08-16T12:24:52;5.82;;;2.80;;
48181;SDS011;33976;47.436;18.876;2022-08-16T12:27:54;5.82;;;3.10;;
48181;SDS011;33976;47.436;18.876;2022-08-16T12:30:32;3.83;;;2.62;;
48181;SDS011;33976;47.436;18.876;2022-08-16T12:33:20;4.85;;;2.75;;
48181;SDS011;33976;47.436;18.876;2022-08-16T12:35:52;5.78;;;2.70;;
48181;SDS011;33976;47.436;18.876;2022-08-16T12:38:21;4.43;;;2.75;;
48181;SDS011;33976;47.436;18.876;2022-08-16T12:41:10;5.00;;;3.03;;
48181;SDS011;33976;47.436;18.876;2022-08-16T12:43:52;6.95;;;2.80;;
48181;SDS011;33976;47.436;18.876;2022-08-16T12:46:28;3.28;;;2.20;;
48181;SDS011;33976;47.436;18.876;2022-08-16T12:48:58;3.65;;;2.35;;
48181;SDS011;33976;47.436;18.876;2022-08-16T12:51:32;4.72;;;3.08;;
48181;SDS011;33976;47.436;18.876;2022-08-16T12:54:26;4.90;;;2.45;;
48181;SDS011;33976;47.436;18.876;2022-08-16T12:56:59;4.47;;;2.70;;
48181;SDS011;33976;47.436;18.876;2022-08-16T12:59:36;7.03;;;2.80;;
48181;SDS011;33976;47.436;18.876;2022-08-16T13:02:20;5.07;;;2.72;;
48181;SDS011;33976;47.436;18.876;2022-08-16T13:05:04;4.62;;;2.75;;
48181;SDS011;33976;47.436;18.876;2022-08-16T13:07:39;3.87;;;2.60;;
48181;SDS011;33976;47.436;18.876;2022-08-16T13:10:18;5.37;;;2.60;;
48181;SDS011;33976;47.436;18.876;2022-08-16T13:13:05;7.28;;;2.62;;
48181;SDS011;33976;47.436;18.876;2022-08-16T13:15:36;3.30;;;2.28;;
48181;SDS011;33976;47.436;18.876;2022-08-16T13:18:22;6.75;;;2.45;;
48181;SDS011;33976;47.436;18.876;2022-08-16T13:21:05;5.87;;;2.55;;
48181;SDS011;33976;47.436;18.876;2022-08-16T13:23:36;4.95;;;2.60;;
48181;SDS011;33976;47.436;18.876;2022-08-16T13:26:10;5.95;;;2.72;;
48181;SDS011;33976;47.436;18.876;2022-08-16T13:28:44;6.00;;;3.40;;
48181;SDS011;33976;47.436;18.876;2022-08-16T13:31:14;10.63;;;3.62;;
48181;SDS011;33976;47.436;18.876;2022-08-16T13:33:43;5.10;;;3.00;;
48181;SDS011;33976;47.436;18.876;2022-08-16T13:36:12;5.28;;;2.70;;
48181;SDS011;33976;47.436;18.876;2022-08-16T13:39:01;5.28;;;2.60;;
48181;SDS011;33976;47.436;18.876;2022-08-16T13:41:31;10.40;;;3.17;;
48181;SDS011;33976;47.436;18.876;2022-08-16T13:43:59;4.22;;;3.00;;
48181;SDS011;33976;47.436;18.876;2022-08-16T13:46:36;6.82;;;4.60;;
48181;SDS011;33976;47.436;18.876;2022-08-16T13:49:04;5.15;;;3.00;;
48181;SDS011;33976;47.436;18.876;2022-08-16T13:51:33;4.50;;;2.95;;
48181;SDS011;33976;47.436;18.876;2022-08-16T13:54:05;4.82;;;2.90;;
48181;SDS011;33976;47.436;18.876;2022-08-16T13:56:35;6.32;;;2.85;;
48181;SDS011;33976;47.436;18.876;2022-08-16T13:59:08;4.45;;;2.75;;
48181;SDS011;33976;47.436;18.876;2022-08-16T14:01:48;3.83;;;2.75;;
48181;SDS011;33976;47.436;18.876;2022-08-16T14:04:27;3.75;;;2.60;;
48181;SDS011;33976;47.436;18.876;2022-08-16T14:06:57;4.70;;;2.63;;
48181;SDS011;33976;47.436;18.876;2022-08-16T14:09:27;4.43;;;2.70;;
48181;SDS011;33976;47.436;18.876;2022-08-16T14:11:58;18.42;;;3.17;;
48181;SDS011;33976;47.436;18.876;2022-08-16T14:14:35;4.43;;;2.58;;
48181;SDS011;33976;47.436;18.876;2022-08-16T14:17:03;4.75;;;2.70;;
48181;SDS011;33976;47.436;18.876;2022-08-16T14:19:36;5.85;;;2.60;;
48181;SDS011;33976;47.436;18.876;2022-08-16T14:24:58;3.80;;;2.60;;
48181;SDS011;33976;47.436;18.876;2022-08-16T14:27:29;4.12;;;2.70;;
48181;SDS011;33976;47.436;18.876;2022-08-16T14:29:57;8.18;;;2.58;;
48181;SDS011;33976;47.436;18.876;2022-08-16T14:32:28;3.72;;;2.50;;
48181;SDS011;33976;47.436;18.876;2022-08-16T14:35:02;4.00;;;2.90;;
48181;SDS011;33976;47.436;18.876;2022-08-16T14:37:34;6.78;;;2.70;;
48181;SDS011;33976;47.436;18.876;2022-08-16T14:40:07;4.30;;;2.75;;
48181;SDS011;33976;47.436;18.876;2022-08-16T14:42:39;3.95;;;2.37;;
48181;SDS011;33976;47.436;18.876;2022-08-16T14:45:11;5.45;;;3.50;;
48181;SDS011;33976;47.436;18.876;2022-08-16T14:47:43;4.28;;;2.83;;
48181;SDS011;33976;47.436;18.876;2022-08-16T14:50:13;4.50;;;2.50;;
48181;SDS011;33976;47.436;18.876;2022-08-16T14:52:43;3.78;;;2.60;;
48181;SDS011;33976;47.436;18.876;2022-08-16T14:55:34;4.40;;;2.78;;
48181;SDS011;33976;47.436;18.876;2022-08-16T14:58:07;4.05;;;2.42;;
48181;SDS011;33976;47.436;18.876;2022-08-16T15:00:46;4.00;;;2.53;;
48181;SDS011;33976;47.436;18.876;2022-08-16T15:03:18;3.33;;;2.47;;
48181;SDS011;33976;47.436;18.876;2022-08-16T15:05:49;4.32;;;2.90;;
48181;SDS011;33976;47.436;18.876;2022-08-16T15:08:20;5.90;;;2.60;;
48181;SDS011;33976;47.436;18.876;2022-08-16T15:11:04;4.35;;;2.70;;
48181;SDS011;33976;47.436;18.876;2022-08-16T15:13:34;9.40;;;2.80;;
48181;SDS011;33976;47.436;18.876;2022-08-16T15:16:02;3.92;;;2.83;;
48181;SDS011;33976;47.436;18.876;2022-08-16T15:18:32;4.05;;;2.70;;
48181;SDS011;33976;47.436;18.876;2022-08-16T15:21:01;7.12;;;2.78;;
48181;SDS011;33976;47.436;18.876;2022-08-16T15:23:31;4.20;;;2.62;;
48181;SDS011;33976;47.436;18.876;2022-08-16T15:26:01;7.97;;;2.92;;
48181;SDS011;33976;47.436;18.876;2022-08-16T15:28:31;6.10;;;2.85;;
48181;SDS011;33976;47.436;18.876;2022-08-16T15:31:05;5.78;;;2.90;;
48181;SDS011;33976;47.436;18.876;2022-08-16T15:33:37;3.92;;;2.42;;
48181;SDS011;33976;47.436;18.876;2022-08-16T15:36:13;5.97;;;2.90;;
48181;SDS011;33976;47.436;18.876;2022-08-16T15:38:46;6.00;;;2.87;;
48181;SDS011;33976;47.436;18.876;2022-08-16T15:44:10;5.75;;;2.55;;
48181;SDS011;33976;47.436;18.876;2022-08-16T15:46:39;4.25;;;2.37;;
48181;SDS011;33976;47.436;18.876;2022-08-16T15:49:24;6.53;;;2.75;;
48181;SDS011;33976;47.436;18.876;2022-08-16T15:52:07;5.68;;;2.78;;